Time;durP1;ratioP1;P1;durP2;ratioP2;P2;SDS_P1;SDS_P2;PMS_P1;PMS_P2;Temp;Humidity;BMP_temperature;BMP_pressure;BME280_temperature;BME280_humidity;BME280_pressure;Samples;Min_cycle;Max_cycle;Signal;HPM_P1;HPM_P2
2022/10/29 00:01:21;;;;;;;15.10;6.32;;;13.50;99.90;;;;;;5006986;28;20059;-82
2022/10/29 00:03:48;;;;;;;29.33;7.65;;;13.50;99.90;;;;;;5016338;28;20057;-81
2022/10/29 00:06:13;;;;;;;19.05;7.28;;;13.50;99.90;;;;;;5016565;28;20066;-81
2022/10/29 00:08:41;;;;;;;12.63;6.10;;;13.50;99.90;;;;;;4986728;28;20074;-80
2022/10/29 00:11:18;;;;;;;31.05;8.13;;;13.50;99.90;;;;;;5022597;28;20049;-81
2022/10/29 00:13:46;;;;;;;24.88;7.15;;;13.50;99.90;;;;;;5026934;28;20049;-77
2022/10/29 00:16:15;;;;;;;31.48;7.90;;;13.50;99.90;;;;;;5015747;28;20050;-79
2022/10/29 00:18:42;;;;;;;15.55;6.55;;;13.30;99.90;;;;;;5002566;28;20047;-81
2022/10/29 00:21:10;;;;;;;15.73;6.95;;;13.40;99.90;;;;;;5036238;28;20050;-79
2022/10/29 00:23:36;;;;;;;25.77;5.90;;;13.40;99.90;;;;;;5002867;28;20054;-80
2022/10/29 00:26:02;;;;;;;23.13;7.03;;;13.40;99.90;;;;;;4999979;28;20034;-81
2022/10/29 00:28:28;;;;;;;13.40;6.35;;;13.40;99.90;;;;;;5005267;28;20042;-81
2022/10/29 00:30:54;;;;;;;13.65;6.82;;;13.50;99.90;;;;;;5030806;28;20043;-80
2022/10/29 00:33:20;;;;;;;28.17;8.10;;;13.40;99.90;;;;;;5004383;28;20049;-81
2022/10/29 00:35:55;;;;;;;15.10;7.78;;;13.40;99.90;;;;;;5005458;28;20050;-80
2022/10/29 00:38:20;;;;;;;17.33;7.03;;;13.40;99.90;;;;;;5006619;28;20124;-80
2022/10/29 00:40:46;;;;;;;24.33;7.68;;;13.40;99.90;;;;;;5031306;28;20034;-81
2022/10/29 00:43:17;;;;;;;18.38;7.15;;;13.40;99.90;;;;;;4989443;28;20225;-81
2022/10/29 00:46:15;;;;;;;52.95;8.20;;;13.40;99.90;;;;;;5023840;28;20553;-81
2022/10/29 00:48:47;;;;;;;36.97;8.82;;;13.40;99.90;;;;;;4966822;28;20078;-81
2022/10/29 00:51:14;;;;;;;35.22;8.48;;;13.40;99.90;;;;;;4999314;28;20130;-81
2022/10/29 00:53:51;;;;;;;43.20;9.60;;;13.40;99.90;;;;;;5021725;28;20047;-79
2022/10/29 00:56:16;;;;;;;77.93;10.18;;;13.30;99.90;;;;;;5003682;28;20503;-81
2022/10/29 00:58:44;;;;;;;60.33;9.13;;;13.30;99.90;;;;;;4998946;28;20052;-81
2022/10/29 01:01:10;;;;;;;21.58;6.72;;;13.40;99.90;;;;;;5003595;28;20591;-81
2022/10/29 01:03:36;;;;;;;28.63;8.07;;;13.30;99.90;;;;;;5038985;28;20042;-81
2022/10/29 01:06:02;;;;;;;58.40;9.00;;;13.30;99.90;;;;;;4996618;28;20042;-81
2022/10/29 01:08:28;;;;;;;31.98;7.72;;;13.30;99.90;;;;;;4989231;28;20047;-81
2022/10/29 01:11:24;;;;;;;66.53;8.95;;;13.30;99.90;;;;;;5010102;28;20045;-79
2022/10/29 01:14:10;;;;;;;63.22;10.10;;;13.40;99.90;;;;;;5011610;28;20053;-81
2022/10/29 01:16:36;;;;;;;103.95;13.30;;;13.40;99.90;;;;;;5011434;28;20419;-81
2022/10/29 01:19:08;;;;;;;63.90;10.32;;;13.40;99.90;;;;;;4996028;28;20044;-81
2022/10/29 01:21:38;;;;;;;39.60;8.88;;;13.40;99.90;;;;;;5009741;28;20414;-80
2022/10/29 01:24:03;;;;;;;54.80;10.40;;;13.50;99.90;;;;;;5028008;28;20046;-81
2022/10/29 01:27:06;;;;;;;33.38;8.45;;;13.50;99.90;;;;;;4994346;28;20058;-81
2022/10/29 01:29:32;;;;;;;19.45;7.25;;;13.50;99.90;;;;;;5009812;28;20042;-81
2022/10/29 01:32:15;;;;;;;23.02;8.75;;;13.50;99.90;;;;;;5017213;28;20056;-81
2022/10/29 01:35:02;;;;;;;21.45;8.23;;;13.50;99.90;;;;;;5010021;28;20042;-81
2022/10/29 01:37:53;;;;;;;17.08;8.73;;;13.50;99.90;;;;;;5010536;28;20034;-81
2022/10/29 01:40:47;;;;;;;12.82;6.78;;;13.50;99.90;;;;;;4998331;28;20042;-81
2022/10/29 01:43:37;;;;;;;44.35;8.63;;;13.50;99.90;;;;;;4993519;28;20097;-80
2022/10/29 01:46:33;;;;;;;20.15;6.80;;;13.60;99.90;;;;;;5015270;28;20042;-81
2022/10/29 01:49:04;;;;;;;42.25;8.00;;;13.50;99.90;;;;;;5019843;28;20046;-81
2022/10/29 01:51:33;;;;;;;13.25;6.57;;;13.60;99.90;;;;;;4999060;28;20037;-81
2022/10/29 01:54:00;;;;;;;46.28;8.95;;;13.60;99.90;;;;;;5023431;28;20126;-81
2022/10/29 01:56:26;;;;;;;37.17;8.43;;;13.60;99.90;;;;;;4999850;28;20026;-81
2022/10/29 01:58:55;;;;;;;58.85;10.43;;;13.60;99.90;;;;;;5007786;28;20490;-80
2022/10/29 02:01:34;;;;;;;46.00;7.63;;;13.50;99.90;;;;;;5008400;28;20042;-81
2022/10/29 02:04:09;;;;;;;41.38;8.95;;;13.50;99.90;;;;;;5009702;28;20062;-79
2022/10/29 02:06:53;;;;;;;31.17;6.95;;;13.50;99.90;;;;;;5023119;28;20046;-81
2022/10/29 02:09:26;;;;;;;31.40;7.78;;;13.50;99.90;;;;;;4986956;28;20053;-80
2022/10/29 02:12:08;;;;;;;75.55;9.75;;;13.40;99.90;;;;;;5012682;28;20093;-79
2022/10/29 02:14:55;;;;;;;78.40;10.07;;;13.50;99.90;;;;;;5005934;28;20140;-80
2022/10/29 02:17:22;;;;;;;29.60;7.90;;;13.50;99.90;;;;;;5005092;28;20047;-81
2022/10/29 02:19:47;;;;;;;87.82;10.63;;;13.50;99.90;;;;;;5022586;28;20122;-81
2022/10/29 02:22:13;;;;;;;85.80;9.65;;;13.50;99.90;;;;;;5008889;28;20077;-81
2022/10/29 02:24:39;;;;;;;105.57;10.65;;;13.50;99.90;;;;;;4997506;28;20046;-80
2022/10/29 02:27:04;;;;;;;18.40;6.70;;;13.50;99.90;;;;;;4975340;28;20057;-81
2022/10/29 02:29:30;;;;;;;29.20;6.72;;;13.50;99.90;;;;;;5003350;28;20034;-81
2022/10/29 02:31:56;;;;;;;37.38;7.82;;;13.50;99.90;;;;;;5039557;28;20565;-79
2022/10/29 02:34:21;;;;;;;80.82;9.52;;;13.40;99.90;;;;;;5004397;28;20038;-81
2022/10/29 02:36:47;;;;;;;35.63;7.35;;;13.40;99.90;;;;;;5020387;28;20046;-80
2022/10/29 02:39:12;;;;;;;88.90;10.02;;;13.50;99.90;;;;;;5016225;28;20042;-80
2022/10/29 02:41:38;;;;;;;14.77;5.82;;;13.50;99.90;;;;;;4986986;28;20540;-80
2022/10/29 02:44:04;;;;;;;20.85;5.22;;;13.40;99.90;;;;;;5016665;28;20514;-81
2022/10/29 02:46:30;;;;;;;126.43;10.63;;;13.40;99.90;;;;;;4994646;28;20073;-81
2022/10/29 02:48:56;;;;;;;31.05;6.20;;;13.50;99.90;;;;;;5017335;28;20069;-80
2022/10/29 02:51:21;;;;;;;166.23;12.68;;;13.50;99.90;;;;;;5025254;28;20046;-78
2022/10/29 02:53:47;;;;;;;56.75;7.15;;;13.50;99.90;;;;;;4980162;28;20090;-81
2022/10/29 02:56:13;;;;;;;78.18;9.85;;;13.40;99.90;;;;;;4984766;28;20054;-81
2022/10/29 02:58:38;;;;;;;55.63;8.88;;;13.40;99.90;;;;;;4984415;28;20042;-81
2022/10/29 03:01:05;;;;;;;54.83;8.60;;;13.40;99.90;;;;;;5012224;28;20536;-81
2022/10/29 03:03:31;;;;;;;108.20;10.68;;;13.40;99.90;;;;;;4992532;28;20618;-80
2022/10/29 03:05:57;;;;;;;55.67;8.23;;;13.40;99.90;;;;;;5007641;28;20069;-80
2022/10/29 03:08:22;;;;;;;58.38;8.23;;;13.40;99.90;;;;;;4977451;28;20418;-80
2022/10/29 03:10:48;;;;;;;37.33;7.43;;;13.40;99.90;;;;;;5008101;28;20473;-81
2022/10/29 03:13:14;;;;;;;47.33;8.55;;;13.40;99.90;;;;;;5008935;28;20043;-82
2022/10/29 03:15:44;;;;;;;47.53;7.32;;;13.40;99.90;;;;;;4989355;28;20062;-81
2022/10/29 03:18:10;;;;;;;98.63;9.95;;;13.40;99.90;;;;;;5012430;28;20613;-81
2022/10/29 03:20:35;;;;;;;54.92;7.97;;;13.40;99.90;;;;;;5032979;28;20120;-81
2022/10/29 03:23:01;;;;;;;33.85;6.20;;;13.40;99.90;;;;;;5043574;28;20597;-80
2022/10/29 03:25:27;;;;;;;105.65;9.23;;;13.40;99.90;;;;;;4998789;28;20120;-81
2022/10/29 03:27:52;;;;;;;62.30;8.27;;;13.40;99.90;;;;;;5024146;28;20124;-81
2022/10/29 03:30:18;;;;;;;52.63;8.18;;;13.40;99.90;;;;;;4986043;28;20128;-81
2022/10/29 03:32:46;;;;;;;56.40;7.95;;;13.40;99.90;;;;;;5015823;28;20147;-80
2022/10/29 03:35:13;;;;;;;57.97;8.18;;;13.40;99.90;;;;;;5000626;28;20442;-81
2022/10/29 03:37:39;;;;;;;43.75;6.82;;;13.40;99.90;;;;;;4996232;28;20509;-81
2022/10/29 03:40:05;;;;;;;131.10;10.70;;;13.40;99.90;;;;;;5004939;28;20038;-81
2022/10/29 03:42:31;;;;;;;50.88;9.32;;;13.40;99.90;;;;;;5014757;28;20443;-80
2022/10/29 03:44:58;;;;;;;55.83;8.48;;;13.40;99.90;;;;;;4989376;28;20030;-81
2022/10/29 03:47:23;;;;;;;47.05;8.45;;;13.40;99.90;;;;;;5002148;28;20046;-80
2022/10/29 03:49:49;;;;;;;49.83;9.23;;;13.40;99.90;;;;;;5020333;28;20034;-80
2022/10/29 03:52:15;;;;;;;45.42;8.20;;;13.40;99.90;;;;;;5016005;28;20486;-79
2022/10/29 03:54:41;;;;;;;84.65;10.75;;;13.40;99.90;;;;;;4994897;28;20100;-81
2022/10/29 03:57:06;;;;;;;93.45;11.50;;;13.40;99.90;;;;;;5015920;28;20068;-81
2022/10/29 03:59:32;;;;;;;96.63;11.60;;;13.40;99.90;;;;;;5007028;28;20037;-78
2022/10/29 04:01:58;;;;;;;89.85;11.05;;;13.40;99.90;;;;;;5013093;28;20186;-80
2022/10/29 04:04:23;;;;;;;101.60;13.15;;;13.40;99.90;;;;;;5007687;28;20034;-81
2022/10/29 04:06:49;;;;;;;67.53;10.35;;;13.30;99.90;;;;;;5021530;28;20564;-78
2022/10/29 04:09:15;;;;;;;81.57;11.82;;;13.30;99.90;;;;;;5022953;23;20033;-58
2022/10/29 04:11:40;;;;;;;33.30;7.68;;;13.30;99.90;;;;;;5063720;28;20465;-58
2022/10/29 04:14:06;;;;;;;37.63;8.57;;;13.30;99.90;;;;;;5056708;28;20505;-58
2022/10/29 04:16:32;;;;;;;47.95;8.98;;;13.30;99.90;;;;;;5044999;28;20183;-57
2022/10/29 04:18:58;;;;;;;71.15;9.88;;;13.30;99.90;;;;;;5066286;28;20253;-57
2022/10/29 04:21:24;;;;;;;30.45;8.10;;;13.30;99.90;;;;;;5073260;28;20044;-57
2022/10/29 04:23:50;;;;;;;19.98;6.53;;;13.30;99.90;;;;;;5065084;28;20514;-58
2022/10/29 04:26:16;;;;;;;55.67;9.70;;;13.30;99.90;;;;;;5074451;28;20044;-57
2022/10/29 04:28:42;;;;;;;27.35;8.00;;;13.30;99.90;;;;;;5053373;28;20044;-58
2022/10/29 04:31:11;;;;;;;56.20;9.50;;;13.30;99.90;;;;;;5058102;28;20082;-58
2022/10/29 04:33:36;;;;;;;58.63;10.27;;;13.30;99.90;;;;;;5065346;28;20435;-58
2022/10/29 04:36:02;;;;;;;72.13;9.73;;;13.30;99.90;;;;;;5077643;28;20032;-58
2022/10/29 04:38:28;;;;;;;73.72;11.70;;;13.30;99.90;;;;;;5077472;28;20038;-57
2022/10/29 04:41:01;;;;;;;81.80;11.38;;;13.20;99.90;;;;;;5040160;28;20399;-58
2022/10/29 04:43:27;;;;;;;55.97;10.52;;;13.20;99.90;;;;;;5062160;28;20044;-58
2022/10/29 04:45:55;;;;;;;26.58;9.48;;;13.30;99.90;;;;;;5067093;28;20155;-59
2022/10/29 04:48:22;;;;;;;59.10;9.77;;;13.20;99.90;;;;;;5047429;28;20491;-59
2022/10/29 04:50:48;;;;;;;150.00;14.80;;;13.20;99.90;;;;;;5063783;28;20028;-58
2022/10/29 04:53:14;;;;;;;104.03;12.57;;;13.30;99.90;;;;;;5072821;28;20475;-57
2022/10/29 04:55:41;;;;;;;69.75;12.60;;;13.30;99.90;;;;;;5075797;28;20036;-58
2022/10/29 04:58:10;;;;;;;63.63;11.13;;;13.30;99.90;;;;;;5055770;28;20468;-58
2022/10/29 05:00:36;;;;;;;94.78;11.38;;;13.30;99.90;;;;;;5078125;28;20510;-59
2022/10/29 05:03:02;;;;;;;123.30;13.75;;;13.30;99.90;;;;;;5078819;28;20252;-58
2022/10/29 05:05:28;;;;;;;119.78;13.00;;;13.30;99.90;;;;;;5062629;28;20065;-59
2022/10/29 05:07:58;;;;;;;91.40;13.23;;;13.30;99.90;;;;;;5086751;28;20100;-59
2022/10/29 05:10:29;;;;;;;113.85;12.63;;;13.30;99.90;;;;;;5086127;28;20039;-59
2022/10/29 05:12:57;;;;;;;67.30;10.60;;;13.30;99.90;;;;;;5069727;28;20051;-58
2022/10/29 05:15:22;;;;;;;105.55;12.05;;;13.30;99.90;;;;;;5036621;28;20041;-58
2022/10/29 05:17:48;;;;;;;55.67;11.23;;;13.30;99.90;;;;;;5080481;28;20617;-60
2022/10/29 05:20:14;;;;;;;82.28;12.52;;;13.30;99.90;;;;;;5073395;28;20214;-58
2022/10/29 05:22:39;;;;;;;74.88;12.32;;;13.30;99.90;;;;;;5088250;28;20046;-59
2022/10/29 05:25:05;;;;;;;50.58;11.90;;;13.30;99.90;;;;;;5039941;28;20048;-58
2022/10/29 05:27:31;;;;;;;25.73;10.30;;;13.30;99.90;;;;;;5086706;28;20043;-59
2022/10/29 05:29:57;;;;;;;88.47;14.48;;;13.30;99.90;;;;;;5087896;28;20108;-59
2022/10/29 05:32:22;;;;;;;55.58;12.73;;;13.20;99.90;;;;;;5040955;28;20130;-59
2022/10/29 05:34:48;;;;;;;84.40;15.30;;;13.30;99.90;;;;;;5087438;28;20190;-58
2022/10/29 05:37:14;;;;;;;21.75;10.90;;;13.30;99.90;;;;;;5060458;28;20032;-58
2022/10/29 05:39:39;;;;;;;31.77;10.98;;;13.20;99.90;;;;;;5089281;28;20045;-59
2022/10/29 05:42:05;;;;;;;20.70;10.68;;;13.20;99.90;;;;;;5060473;28;20044;-58
2022/10/29 05:44:31;;;;;;;28.60;10.32;;;13.20;99.90;;;;;;5049577;28;20036;-57
2022/10/29 05:46:57;;;;;;;38.90;12.50;;;13.20;99.90;;;;;;5081507;28;20051;-58
2022/10/29 05:49:22;;;;;;;38.13;10.85;;;13.20;99.90;;;;;;5067673;28;20066;-58
2022/10/29 05:51:48;;;;;;;23.08;10.93;;;13.20;99.90;;;;;;5038007;28;20143;-58
2022/10/29 05:54:14;;;;;;;71.25;12.95;;;13.20;99.90;;;;;;5043030;28;20036;-59
2022/10/29 05:56:39;;;;;;;26.23;9.35;;;13.00;99.90;;;;;;5065365;28;20040;-58
2022/10/29 05:59:05;;;;;;;58.13;11.10;;;13.20;99.90;;;;;;5074171;28;20078;-58
2022/10/29 06:01:31;;;;;;;19.25;10.73;;;13.10;99.90;;;;;;5040754;28;20045;-58
2022/10/29 06:03:58;;;;;;;44.38;11.80;;;13.20;99.90;;;;;;5064133;28;20040;-58
2022/10/29 06:06:24;;;;;;;47.03;12.57;;;13.20;99.90;;;;;;5038385;28;20033;-59
2022/10/29 06:08:50;;;;;;;30.30;9.18;;;13.20;99.90;;;;;;5061987;28;20073;-58
2022/10/29 06:11:15;;;;;;;58.47;11.45;;;13.20;99.90;;;;;;5059872;28;20043;-58
2022/10/29 06:13:41;;;;;;;51.97;10.65;;;13.20;99.90;;;;;;5024883;28;20044;-58
2022/10/29 06:16:07;;;;;;;45.17;11.60;;;13.20;99.90;;;;;;5059211;28;20032;-58
2022/10/29 06:18:32;;;;;;;46.60;11.07;;;13.20;99.90;;;;;;5049488;28;20044;-58
2022/10/29 06:20:59;;;;;;;36.60;11.60;;;13.20;99.90;;;;;;5063537;28;20036;-58
2022/10/29 06:23:25;;;;;;;75.90;14.05;;;13.20;99.90;;;;;;5071865;28;20470;-58
2022/10/29 06:25:52;;;;;;;70.85;11.77;;;13.20;99.90;;;;;;5073414;28;20048;-58
2022/10/29 06:28:18;;;;;;;36.65;10.68;;;13.20;99.90;;;;;;5069687;28;20085;-58
2022/10/29 06:30:49;;;;;;;54.42;12.80;;;13.20;99.90;;;;;;5041813;28;20035;-58
2022/10/29 06:33:16;;;;;;;75.45;14.75;;;13.20;99.90;;;;;;5048946;28;20104;-58
2022/10/29 06:35:42;;;;;;;30.27;11.35;;;13.20;99.90;;;;;;5033853;28;20394;-59
2022/10/29 06:38:08;;;;;;;59.63;13.10;;;13.20;99.90;;;;;;5074674;28;20044;-59
2022/10/29 06:40:34;;;;;;;45.72;11.23;;;13.20;99.90;;;;;;5045216;28;20060;-60
2022/10/29 06:43:05;;;;;;;19.70;11.20;;;13.20;99.90;;;;;;5040799;28;20431;-59
2022/10/29 06:45:32;;;;;;;55.90;12.82;;;13.20;99.90;;;;;;5072062;28;20039;-59
2022/10/29 06:47:58;;;;;;;18.40;10.38;;;13.20;99.90;;;;;;5056539;28;20031;-59
2022/10/29 06:50:24;;;;;;;38.58;10.75;;;13.30;99.90;;;;;;5043315;28;20039;-59
2022/10/29 06:52:55;;;;;;;32.60;11.40;;;13.30;99.90;;;;;;5069223;28;20450;-58
2022/10/29 06:55:20;;;;;;;40.22;12.23;;;13.30;99.90;;;;;;5059598;28;20036;-59
2022/10/29 06:57:46;;;;;;;35.67;12.55;;;13.30;99.90;;;;;;5042395;28;20520;-59
2022/10/29 07:00:12;;;;;;;32.45;10.40;;;13.30;99.90;;;;;;5075354;28;20048;-58
2022/10/29 07:02:38;;;;;;;34.92;10.00;;;13.40;99.90;;;;;;5077752;28;20040;-59
2022/10/29 07:05:04;;;;;;;39.55;9.88;;;13.40;99.90;;;;;;5046579;28;20071;-59
2022/10/29 07:07:29;;;;;;;70.22;12.70;;;13.40;99.90;;;;;;5041248;28;20039;-57
2022/10/29 07:09:55;;;;;;;74.82;12.88;;;13.40;99.90;;;;;;5055561;28;20044;-58
2022/10/29 07:12:21;;;;;;;33.90;11.25;;;13.40;99.90;;;;;;5058586;28;20046;-58
2022/10/29 07:14:49;;;;;;;38.58;10.43;;;13.40;99.90;;;;;;5058416;28;20048;-58
2022/10/29 07:17:14;;;;;;;99.55;12.73;;;13.40;99.90;;;;;;5082749;28;20056;-59
2022/10/29 07:19:40;;;;;;;60.67;10.23;;;13.50;99.90;;;;;;5074180;28;20041;-57
2022/10/29 07:22:06;;;;;;;31.02;9.98;;;13.40;99.90;;;;;;5089115;28;20218;-58
2022/10/29 07:24:31;;;;;;;36.80;9.52;;;13.50;99.90;;;;;;5076895;28;20047;-58
2022/10/29 07:26:57;;;;;;;29.40;11.27;;;13.50;99.90;;;;;;5056523;28;20051;-59
2022/10/29 07:29:23;;;;;;;34.10;10.13;;;13.50;99.90;;;;;;5053224;28;20032;-58
2022/10/29 07:31:48;;;;;;;26.45;10.18;;;13.60;99.90;;;;;;5084783;28;20503;-58
2022/10/29 07:34:14;;;;;;;54.22;11.15;;;13.60;99.90;;;;;;5072239;28;20104;-58
2022/10/29 07:36:40;;;;;;;37.47;9.98;;;13.60;99.90;;;;;;5042710;28;20036;-58
2022/10/29 07:39:06;;;;;;;26.17;9.85;;;13.60;99.90;;;;;;5041788;28;20044;-58
2022/10/29 07:41:32;;;;;;;83.07;12.55;;;13.60;99.90;;;;;;5058416;28;20090;-58
2022/10/29 07:43:58;;;;;;;31.58;9.32;;;13.70;99.90;;;;;;5063085;28;20073;-59
2022/10/29 07:46:23;;;;;;;34.40;9.82;;;13.70;99.90;;;;;;5060798;28;20518;-58
2022/10/29 07:48:49;;;;;;;28.80;9.60;;;13.70;99.90;;;;;;5069478;28;20115;-58
2022/10/29 07:51:15;;;;;;;32.47;10.35;;;13.70;99.90;;;;;;5073441;28;20036;-58
2022/10/29 07:53:40;;;;;;;38.55;11.90;;;13.80;99.90;;;;;;5053538;28;20041;-58
2022/10/29 07:56:06;;;;;;;41.15;11.75;;;13.80;99.90;;;;;;5057420;28;20043;-59
2022/10/29 07:58:32;;;;;;;49.88;13.65;;;13.80;99.90;;;;;;5054152;28;20048;-58
2022/10/29 08:00:59;;;;;;;32.85;12.52;;;13.80;99.90;;;;;;5054250;28;20075;-59
2022/10/29 08:03:25;;;;;;;41.65;13.57;;;13.90;99.90;;;;;;5073609;28;20110;-58
2022/10/29 08:05:50;;;;;;;51.97;16.92;;;13.90;99.90;;;;;;5058453;28;20704;-58
2022/10/29 08:08:16;;;;;;;43.38;16.27;;;13.90;99.90;;;;;;5068608;28;20332;-58
2022/10/29 08:10:42;;;;;;;49.08;18.25;;;13.90;99.90;;;;;;5074035;28;20060;-59
2022/10/29 08:13:08;;;;;;;64.22;19.65;;;14.00;99.90;;;;;;5073495;28;20085;-58
2022/10/29 08:15:34;;;;;;;51.47;19.48;;;14.00;99.90;;;;;;5063784;28;20368;-58
2022/10/29 08:18:00;;;;;;;50.65;19.77;;;14.10;99.90;;;;;;5058240;28;20029;-58
2022/10/29 08:20:27;;;;;;;41.95;17.13;;;14.10;99.90;;;;;;5070121;28;20435;-58
2022/10/29 08:22:53;;;;;;;42.25;19.17;;;14.10;99.90;;;;;;5068783;28;20047;-60
2022/10/29 08:25:19;;;;;;;56.22;21.08;;;14.10;99.90;;;;;;5077385;28;20040;-58
2022/10/29 08:27:56;;;;;;;50.63;20.00;;;14.20;99.90;;;;;;5035045;28;20042;-59
2022/10/29 08:30:21;;;;;;;60.03;21.85;;;14.20;99.90;;;;;;5066309;28;20450;-58
2022/10/29 08:32:47;;;;;;;58.58;23.55;;;14.30;99.90;;;;;;5077737;28;20055;-59
2022/10/29 08:35:14;;;;;;;41.97;18.90;;;14.30;99.90;;;;;;5043875;28;20389;-58
2022/10/29 08:37:43;;;;;;;48.45;20.35;;;14.40;99.90;;;;;;5048318;28;20391;-59
2022/10/29 08:40:48;;;;;;;46.35;20.50;;;14.40;99.90;;;;;;5045515;28;20397;-58
2022/10/29 08:43:26;;;;;;;51.25;22.30;;;14.40;99.90;;;;;;5079878;28;20382;-59
2022/10/29 08:45:56;;;;;;;55.85;22.23;;;14.40;99.90;;;;;;5048001;28;20059;-58
2022/10/29 08:48:47;;;;;;;42.38;21.38;;;14.40;99.90;;;;;;5063989;28;20686;-57
2022/10/29 08:51:16;;;;;;;47.13;21.05;;;14.50;99.90;;;;;;5063601;28;20036;-58
2022/10/29 08:53:50;;;;;;;49.30;23.13;;;14.50;99.90;;;;;;5083220;28;20039;-58
2022/10/29 08:56:20;;;;;;;43.20;20.67;;;14.50;99.90;;;;;;5080896;28;20032;-58
2022/10/29 08:58:58;;;;;;;38.47;19.80;;;14.60;99.90;;;;;;5089629;28;20231;-58
2022/10/29 09:01:24;;;;;;;49.97;22.25;;;14.70;99.90;;;;;;5085878;28;20498;-58
2022/10/29 09:03:51;;;;;;;46.42;21.90;;;14.70;99.90;;;;;;5084630;28;20054;-58
2022/10/29 09:06:24;;;;;;;48.22;23.33;;;14.70;99.90;;;;;;5083764;28;20567;-59
2022/10/29 09:08:58;;;;;;;42.20;20.60;;;14.70;99.90;;;;;;5045031;28;20039;-58
2022/10/29 09:11:43;;;;;;;42.05;22.35;;;14.80;99.90;;;;;;5038869;28;20330;-58
2022/10/29 09:14:27;;;;;;;37.75;18.80;;;14.80;99.90;;;;;;5083736;28;20048;-58
2022/10/29 09:16:52;;;;;;;;;;;14.80;99.90;;;;;;5086628;28;20043;-60
2022/10/29 09:19:39;;;;;;;46.17;21.42;;;14.90;99.90;;;;;;5084042;28;20328;-60
2022/10/29 09:22:18;;;;;;;44.85;21.45;;;14.80;99.90;;;;;;5052403;28;20044;-58
2022/10/29 09:25:03;;;;;;;33.88;19.40;;;14.80;99.90;;;;;;5070324;28;20036;-58
2022/10/29 09:28:02;;;;;;;35.83;18.45;;;14.90;99.90;;;;;;5091760;28;20036;-58
2022/10/29 09:30:39;;;;;;;38.60;20.73;;;14.90;99.90;;;;;;5073961;28;20379;-58
2022/10/29 09:33:13;;;;;;;43.40;19.77;;;14.90;99.90;;;;;;5069204;28;20036;-57
2022/10/29 09:35:57;;;;;;;42.40;21.13;;;14.90;99.90;;;;;;5075815;28;20078;-58
2022/10/29 09:38:35;;;;;;;33.50;18.92;;;14.90;99.90;;;;;;5069786;28;20079;-58
2022/10/29 09:41:02;;;;;;;46.97;22.77;;;14.90;99.90;;;;;;5075253;28;20101;-58
2022/10/29 09:43:37;;;;;;;43.35;22.10;;;15.00;99.90;;;;;;5048917;28;20224;-58
2022/10/29 09:46:09;;;;;;;49.35;21.98;;;15.00;99.90;;;;;;5072386;28;20032;-58
2022/10/29 09:48:42;;;;;;;43.75;23.48;;;15.10;99.90;;;;;;5047345;28;20167;-57
2022/10/29 09:51:19;;;;;;;48.25;23.95;;;15.20;99.90;;;;;;5045725;28;20064;-58
2022/10/29 09:53:45;;;;;;;40.92;22.23;;;15.30;99.90;;;;;;5086778;28;20048;-58
2022/10/29 09:56:10;;;;;;;50.30;23.20;;;15.40;99.90;;;;;;5066463;28;20054;-58
2022/10/29 09:58:41;;;;;;;43.20;21.60;;;15.40;99.90;;;;;;5054391;28;20043;-58
2022/10/29 10:01:06;;;;;;;41.78;20.83;;;15.50;99.90;;;;;;5056966;28;20116;-58
2022/10/29 10:03:44;;;;;;;37.05;21.38;;;15.50;99.90;;;;;;5076546;28;20436;-57
2022/10/29 10:06:14;;;;;;;31.15;18.85;;;15.60;99.90;;;;;;5077162;28;20189;-57
2022/10/29 10:11:38;;;;;;;36.05;18.98;;;15.70;99.90;;;;;;5034575;28;20407;-57
2022/10/29 10:14:20;;;;;;;29.33;18.35;;;15.80;99.90;;;;;;5042777;28;20297;-58
2022/10/29 10:16:55;;;;;;;36.03;18.48;;;15.90;99.90;;;;;;5027055;28;20040;-58
2022/10/29 10:19:23;;;;;;;32.22;18.77;;;15.90;99.90;;;;;;5020598;28;20052;-58
2022/10/29 10:21:58;;;;;;;27.80;18.08;;;16.00;99.90;;;;;;5037979;28;20447;-58
2022/10/29 10:24:35;;;;;;;36.70;18.83;;;16.00;99.90;;;;;;5039589;28;20041;-58
2022/10/29 10:27:30;;;;;;;31.65;18.00;;;16.00;99.90;;;;;;5052080;28;20036;-58
2022/10/29 10:30:11;;;;;;;26.92;17.17;;;16.10;99.90;;;;;;5048306;28;20124;-58
2022/10/29 10:32:37;;;;;;;28.00;17.48;;;16.10;99.90;;;;;;5029684;28;20396;-58
2022/10/29 10:35:25;;;;;;;25.95;16.23;;;16.20;99.90;;;;;;5042797;28;20033;-56
2022/10/29 10:37:51;;;;;;;27.23;16.13;;;16.30;99.90;;;;;;5028781;28;20037;-56
2022/10/29 10:40:23;;;;;;;29.38;18.27;;;16.40;99.90;;;;;;5051096;28;20047;-59
2022/10/29 10:42:50;;;;;;;34.22;17.55;;;16.50;99.90;;;;;;5053876;28;20039;-58
2022/10/29 10:45:23;;;;;;;27.20;17.58;;;16.50;99.90;;;;;;5012259;28;20094;-57
2022/10/29 10:47:51;;;;;;;30.40;17.75;;;16.60;99.90;;;;;;5035931;28;20037;-58
2022/10/29 10:50:25;;;;;;;20.17;14.45;;;16.70;99.90;;;;;;5037742;28;20472;-58
2022/10/29 10:52:53;;;;;;;23.20;14.60;;;16.70;99.90;;;;;;5038043;28;20136;-57
2022/10/29 10:55:36;;;;;;;29.05;15.70;;;16.70;99.90;;;;;;5031483;28;20053;-57
2022/10/29 10:58:15;;;;;;;23.48;14.48;;;16.70;99.90;;;;;;5023710;28;20434;-58
2022/10/29 11:01:07;;;;;;;26.95;15.38;;;16.70;99.90;;;;;;5045021;28;20044;-56
2022/10/29 11:03:47;;;;;;;22.48;13.02;;;16.80;99.90;;;;;;5013702;28;20087;-58
2022/10/29 11:06:26;;;;;;;25.67;13.00;;;16.80;99.90;;;;;;5037174;28;20072;-58
2022/10/29 11:09:04;;;;;;;22.38;13.93;;;16.90;99.90;;;;;;5005236;28;20056;-58
2022/10/29 11:11:57;;;;;;;27.50;14.48;;;16.90;99.90;;;;;;5016029;28;20036;-57
2022/10/29 11:14:29;;;;;;;27.23;15.82;;;17.00;99.90;;;;;;5048676;28;20086;-58
2022/10/29 11:16:57;;;;;;;21.05;13.48;;;17.00;99.90;;;;;;5048088;28;20103;-58
2022/10/29 11:19:41;;;;;;;28.42;14.88;;;17.10;99.90;;;;;;5046220;28;20045;-56
2022/10/29 11:22:28;;;;;;;28.35;15.50;;;17.10;99.90;;;;;;5033918;28;20443;-58
2022/10/29 11:25:13;;;;;;;22.50;14.00;;;17.20;99.90;;;;;;5044851;28;20037;-56
2022/10/29 11:27:58;;;;;;;24.65;15.43;;;17.20;99.90;;;;;;5038252;28;20041;-57
2022/10/29 11:30:25;;;;;;;23.58;14.23;;;17.20;99.90;;;;;;5031795;28;20048;-58
2022/10/29 11:33:03;;;;;;;24.98;13.52;;;17.30;99.90;;;;;;5051828;28;20037;-56
2022/10/29 11:35:37;;;;;;;22.35;12.68;;;17.40;99.90;;;;;;5041413;28;20273;-56
2022/10/29 11:38:23;;;;;;;21.33;11.35;;;17.40;99.90;;;;;;5046333;28;20037;-58
2022/10/29 11:40:58;;;;;;;22.73;12.60;;;17.40;99.90;;;;;;5047421;28;20041;-56
2022/10/29 11:43:24;;;;;;;25.63;13.20;;;17.50;99.90;;;;;;5033554;28;20119;-57
2022/10/29 11:46:11;;;;;;;24.88;12.35;;;17.50;99.90;;;;;;5046814;28;20119;-56
2022/10/29 11:49:02;;;;;;;23.15;12.57;;;17.50;99.90;;;;;;5016905;28;20056;-57
2022/10/29 11:51:57;;;;;;;23.17;12.32;;;17.50;99.90;;;;;;5020019;28;20171;-57
2022/10/29 11:55:01;;;;;;;19.67;11.32;;;17.60;99.90;;;;;;5038891;28;20037;-56
2022/10/29 11:57:46;;;;;;;23.48;12.40;;;17.60;99.90;;;;;;5021682;28;20034;-57
2022/10/29 12:00:17;;;;;;;19.85;12.00;;;17.60;99.90;;;;;;5048159;28;20496;-58
2022/10/29 12:03:01;;;;;;;23.25;11.77;;;17.60;99.90;;;;;;5015519;28;20037;-57
2022/10/29 12:05:33;;;;;;;19.08;11.27;;;17.70;99.90;;;;;;5044217;28;20167;-57
2022/10/29 12:08:05;;;;;;;22.10;11.55;;;17.70;99.90;;;;;;5041629;28;20045;-58
2022/10/29 12:10:57;;;;;;;20.15;11.48;;;17.70;99.90;;;;;;5023302;28;20236;-58
2022/10/29 12:13:35;;;;;;;22.35;10.65;;;17.70;99.90;;;;;;5002031;28;20045;-58
2022/10/29 12:16:18;;;;;;;18.15;10.88;;;17.70;99.90;;;;;;5027824;28;20064;-58
2022/10/29 12:18:54;;;;;;;18.70;11.23;;;17.80;99.90;;;;;;5035379;28;20068;-58
2022/10/29 12:21:46;;;;;;;18.98;10.77;;;17.90;99.90;;;;;;5026506;28;20423;-57
2022/10/29 12:24:17;;;;;;;23.75;12.10;;;18.10;99.90;;;;;;5040033;28;20076;-57
2022/10/29 12:27:07;;;;;;;23.60;11.45;;;18.40;99.90;;;;;;5040709;28;20042;-54
2022/10/29 12:29:53;;;;;;;27.48;12.73;;;18.50;99.90;;;;;;5033898;28;20142;-57
2022/10/29 12:32:25;;;;;;;25.33;11.23;;;18.50;99.90;;;;;;5009101;28;20048;-58
2022/10/29 12:35:10;;;;;;;21.60;11.27;;;18.60;99.90;;;;;;5036704;28;20703;-58
2022/10/29 12:37:43;;;;;;;25.02;11.60;;;18.80;99.90;;;;;;5034541;28;20052;-58
2022/10/29 12:40:19;;;;;;;23.00;11.40;;;18.90;99.90;;;;;;5030154;28;20053;-58
2022/10/29 12:42:47;;;;;;;23.25;11.18;;;18.90;99.90;;;;;;5036434;28;20103;-58
2022/10/29 12:45:12;;;;;;;23.92;11.70;;;18.90;99.90;;;;;;5009132;28;20052;-57
2022/10/29 12:47:59;;;;;;;18.55;10.18;;;18.80;99.90;;;;;;5026799;28;20049;-58
2022/10/29 12:50:38;;;;;;;19.30;11.57;;;18.80;99.90;;;;;;5038756;28;20048;-57
2022/10/29 12:53:14;;;;;;;19.02;11.10;;;18.80;99.90;;;;;;5004438;28;20037;-57